createdAt,value
2019-05-23T00:01:16.691Z,15.90
2019-05-23T00:04:09.467Z,16.07
2019-05-23T00:07:01.847Z,16.00
2019-05-23T00:09:53.825Z,15.60
2019-05-23T00:12:44.300Z,16.25
2019-05-23T00:15:37.341Z,15.58
2019-05-23T00:18:10.337Z,15.85
2019-05-23T00:20:44.519Z,16.02
2019-05-23T00:23:18.003Z,17.05
2019-05-23T00:25:51.506Z,17.10
2019-05-23T00:28:25.031Z,17.05
2019-05-23T00:31:02.290Z,17.13
2019-05-23T00:33:35.436Z,16.60
2019-05-23T00:36:08.020Z,16.23
2019-05-23T00:38:41.522Z,17.37
2019-05-23T00:41:16.304Z,17.15
2019-05-23T00:43:49.323Z,17.42
2019-05-23T00:46:23.530Z,17.54
2019-05-23T00:48:58.542Z,18.84
2019-05-23T00:51:32.290Z,17.17
2019-05-23T00:54:04.857Z,19.35
2019-05-23T00:56:39.282Z,17.77
2019-05-23T00:59:25.861Z,16.87
2019-05-23T01:01:47.295Z,17.90
2019-05-23T01:04:21.018Z,17.00
2019-05-23T01:06:54.346Z,16.90
2019-05-23T01:09:27.769Z,18.23
2019-05-23T01:12:00.580Z,17.30
2019-05-23T01:14:34.497Z,16.60
2019-05-23T01:17:08.754Z,16.20
2019-05-23T01:19:42.755Z,17.12
2019-05-23T01:22:17.653Z,17.52
2019-05-23T01:24:52.318Z,17.40
2019-05-23T01:27:25.443Z,16.65
2019-05-23T01:29:59.328Z,17.67
2019-05-23T01:32:33.457Z,18.50
2019-05-23T01:35:09.328Z,17.52
2019-05-23T01:37:42.308Z,18.75
2019-05-23T01:40:16.686Z,16.85
2019-05-23T01:42:49.657Z,17.73
2019-05-23T01:45:25.375Z,18.52
2019-05-23T01:47:57.757Z,18.24
2019-05-23T01:50:30.779Z,18.57
2019-05-23T01:53:03.383Z,16.55
2019-05-23T01:55:36.450Z,19.20
2019-05-23T01:58:10.290Z,18.48
2019-05-23T02:00:42.243Z,21.62
2019-05-23T02:03:15.254Z,19.12
2019-05-23T02:10:53.721Z,17.30
2019-05-23T02:13:27.282Z,18.65
2019-05-23T02:16:00.662Z,19.00
2019-05-23T02:18:33.679Z,17.52
2019-05-23T02:21:06.507Z,17.85
2019-05-23T02:23:39.293Z,18.62
2019-05-23T02:26:13.287Z,18.45
2019-05-23T02:28:48.281Z,18.20
2019-05-23T02:31:24.596Z,18.35
2019-05-23T02:33:57.463Z,19.17
2019-05-23T02:36:30.810Z,18.92
2019-05-23T02:39:21.611Z,17.90
2019-05-23T02:41:56.442Z,17.55
2019-05-23T02:44:34.279Z,18.45
2019-05-23T02:47:17.455Z,19.33
2019-05-23T02:49:52.339Z,19.80
2019-05-23T02:52:46.770Z,19.88
2019-05-23T02:55:37.883Z,19.17
2019-05-23T02:58:29.295Z,17.97
2019-05-23T03:01:30.386Z,19.30
2019-05-23T03:04:24.442Z,18.85
2019-05-23T03:06:56.841Z,17.62
2019-05-23T03:09:36.491Z,17.87
2019-05-23T03:12:12.547Z,18.07
2019-05-23T03:14:46.337Z,19.57
2019-05-23T03:19:58.258Z,19.90
2019-05-23T03:22:51.734Z,18.77
2019-05-23T03:25:42.791Z,19.07
2019-05-23T03:28:18.493Z,19.53
2019-05-23T03:31:25.061Z,19.55
2019-05-23T03:36:05.301Z,18.67
2019-05-23T03:38:38.328Z,17.97
2019-05-23T03:41:11.486Z,19.40
2019-05-23T03:43:44.704Z,19.05
2019-05-23T03:46:24.951Z,19.57
2019-05-23T03:51:31.694Z,19.15
2019-05-23T03:54:06.285Z,20.37
2019-05-23T03:56:38.765Z,18.32
2019-05-23T03:59:13.304Z,18.73
2019-05-23T04:01:49.167Z,19.05
2019-05-23T04:04:22.412Z,18.07
2019-05-23T04:06:55.595Z,17.73
2019-05-23T04:09:28.483Z,18.52
2019-05-23T04:12:01.319Z,19.02
2019-05-23T04:14:34.304Z,17.65
2019-05-23T04:17:09.767Z,18.55
2019-05-23T04:19:42.520Z,17.87
2019-05-23T04:22:15.475Z,18.52
2019-05-23T04:24:48.311Z,18.60
2019-05-23T04:27:21.360Z,19.48
2019-05-23T04:29:54.765Z,19.78
2019-05-23T04:35:23.276Z,20.37
2019-05-23T04:37:57.525Z,18.77
2019-05-23T04:40:30.285Z,19.17
2019-05-23T04:43:03.032Z,17.77
2019-05-23T04:45:53.808Z,18.30
2019-05-23T04:48:26.914Z,17.98
2019-05-23T04:51:00.542Z,15.24
2019-05-23T04:53:33.324Z,15.78
2019-05-23T04:56:08.814Z,15.53
2019-05-23T04:58:41.412Z,16.12
2019-05-23T05:01:15.231Z,17.02
2019-05-23T05:03:48.974Z,16.65
2019-05-23T05:06:21.524Z,16.87
2019-05-23T05:08:56.146Z,16.42
2019-05-23T05:11:30.755Z,16.80
2019-05-23T05:16:03.851Z,16.70
2019-05-23T05:18:37.278Z,17.50
2019-05-23T05:21:09.692Z,17.20
2019-05-23T05:23:42.267Z,16.55
2019-05-23T05:26:23.048Z,16.75
2019-05-23T05:28:58.292Z,16.23
2019-05-23T05:31:30.815Z,16.75
2019-05-23T05:34:04.699Z,16.82
2019-05-23T05:36:37.364Z,16.93
2019-05-23T05:39:11.639Z,16.77
2019-05-23T05:41:44.464Z,17.27
2019-05-23T05:44:17.297Z,17.05
2019-05-23T05:46:49.993Z,15.68
2019-05-23T05:49:22.655Z,17.25
2019-05-23T05:51:55.659Z,16.00
2019-05-23T05:54:28.033Z,14.25
2019-05-23T05:57:00.460Z,16.45
2019-05-23T05:59:33.289Z,14.55
2019-05-23T06:02:07.802Z,13.38
2019-05-23T06:04:40.593Z,14.55
2019-05-23T06:07:32.731Z,14.23
2019-05-23T06:10:07.749Z,13.83
2019-05-23T06:12:41.343Z,13.83
2019-05-23T06:15:14.334Z,13.58
2019-05-23T06:17:47.300Z,13.40
2019-05-23T06:20:21.181Z,14.43
2019-05-23T06:22:55.397Z,13.18
2019-05-23T06:25:27.783Z,13.80
2019-05-23T06:28:05.355Z,12.28
2019-05-23T06:30:39.918Z,12.15
2019-05-23T06:33:22.573Z,12.43
2019-05-23T06:35:47.591Z,13.10
2019-05-23T06:38:20.578Z,11.70
2019-05-23T06:40:54.875Z,12.13
2019-05-23T06:43:28.303Z,12.45
2019-05-23T06:46:01.037Z,12.30
2019-05-23T06:48:38.695Z,12.50
2019-05-23T06:51:12.441Z,13.05
2019-05-23T06:53:45.292Z,12.10
2019-05-23T06:56:18.304Z,11.97
2019-05-23T06:58:51.727Z,11.10
2019-05-23T07:01:25.762Z,11.82
2019-05-23T07:03:58.604Z,12.53
2019-05-23T07:06:31.981Z,11.20
2019-05-23T07:09:07.849Z,11.78
2019-05-23T07:11:40.902Z,12.07
2019-05-23T07:14:14.358Z,12.63
2019-05-23T07:16:50.307Z,12.43
2019-05-23T07:19:24.291Z,11.63
2019-05-23T07:21:56.804Z,12.40
2019-05-23T07:24:30.323Z,12.25
2019-05-23T07:27:02.269Z,11.35
2019-05-23T07:29:36.313Z,12.65
2019-05-23T07:32:10.228Z,12.55
2019-05-23T07:34:42.562Z,12.47
2019-05-23T07:37:15.374Z,13.80
2019-05-23T07:39:47.760Z,12.88
2019-05-23T07:42:20.305Z,12.78
2019-05-23T07:44:54.438Z,13.65
2019-05-23T07:47:27.508Z,13.18
2019-05-23T07:49:59.809Z,12.95
2019-05-23T07:52:32.448Z,13.88
2019-05-23T07:55:25.637Z,12.35
2019-05-23T07:57:58.356Z,12.13
2019-05-23T08:00:38.323Z,12.56
2019-05-23T08:03:11.787Z,12.95
2019-05-23T08:05:45.655Z,13.28
2019-05-23T08:08:18.654Z,11.93
2019-05-23T08:10:51.315Z,12.07
2019-05-23T08:13:23.979Z,11.18
2019-05-23T08:16:09.301Z,9.60
2019-05-23T08:18:42.848Z,10.43
2019-05-23T08:21:15.306Z,9.10
2019-05-23T08:23:47.665Z,9.50
2019-05-23T08:26:22.050Z,8.98
2019-05-23T08:29:24.291Z,9.85
2019-05-23T08:31:31.720Z,9.60
2019-05-23T08:34:05.299Z,8.70
2019-05-23T08:36:38.283Z,7.53
2019-05-23T08:39:11.707Z,7.28
2019-05-23T08:41:44.304Z,7.75
2019-05-23T08:44:17.297Z,6.15
2019-05-23T08:46:50.240Z,6.22
2019-05-23T08:49:22.549Z,6.37
2019-05-23T08:51:56.721Z,5.10
2019-05-23T08:54:29.292Z,4.85
2019-05-23T08:57:02.294Z,4.97
2019-05-23T08:59:35.282Z,3.83
2019-05-23T09:02:08.034Z,4.05
2019-05-23T09:05:01.191Z,3.93
2019-05-23T09:07:15.590Z,3.77
2019-05-23T09:09:50.851Z,3.72
2019-05-23T09:12:23.791Z,3.72
2019-05-23T09:14:56.845Z,3.55
2019-05-23T09:17:29.810Z,3.98
2019-05-23T09:20:02.466Z,3.35
2019-05-23T09:22:36.039Z,3.67
2019-05-23T09:25:10.348Z,3.58
2019-05-23T09:27:42.750Z,4.20
2019-05-23T09:30:17.352Z,3.55
2019-05-23T09:32:51.302Z,3.37
2019-05-23T09:35:24.321Z,3.15
2019-05-23T09:37:56.721Z,3.00
2019-05-23T09:40:29.471Z,2.80
2019-05-23T09:43:02.330Z,3.22
2019-05-23T09:45:35.325Z,3.30
2019-05-23T09:48:08.328Z,2.90
2019-05-23T09:50:40.848Z,3.10
2019-05-23T09:53:13.751Z,3.12
2019-05-23T09:55:46.293Z,3.20
2019-05-23T09:58:18.798Z,2.75
2019-05-23T10:00:51.353Z,3.02
2019-05-23T10:06:07.328Z,3.50
2019-05-23T10:08:39.677Z,4.12
2019-05-23T10:11:12.478Z,3.95
2019-05-23T10:13:45.293Z,3.60
2019-05-23T10:16:18.285Z,4.10
2019-05-23T10:18:51.691Z,3.35
2019-05-23T10:21:24.287Z,3.83
2019-05-23T10:23:57.304Z,3.62
2019-05-23T10:26:29.786Z,4.50
2019-05-23T10:29:02.290Z,3.68
2019-05-23T10:31:34.651Z,3.12
2019-05-23T10:34:07.330Z,3.55
2019-05-23T10:36:39.786Z,3.10
2019-05-23T10:39:15.572Z,3.40
2019-05-23T10:41:48.309Z,3.50
2019-05-23T10:44:20.863Z,2.98
2019-05-23T10:46:53.363Z,3.20
2019-05-23T10:49:27.535Z,3.48
2019-05-23T10:52:00.058Z,4.10
2019-05-23T10:54:32.365Z,3.70
2019-05-23T10:57:04.761Z,2.77
2019-05-23T10:59:37.285Z,3.42
2019-05-23T11:02:10.784Z,3.10
2019-05-23T11:04:43.300Z,3.10
2019-05-23T11:07:16.299Z,3.10
2019-05-23T11:09:48.768Z,2.50
2019-05-23T11:12:21.299Z,2.90
2019-05-23T11:14:54.371Z,2.55
2019-05-23T11:17:27.609Z,2.85
2019-05-23T11:20:00.025Z,2.08
2019-05-23T11:22:32.739Z,2.20
2019-05-23T11:25:07.691Z,2.55
2019-05-23T11:27:40.372Z,2.92
2019-05-23T11:32:47.271Z,2.55
2019-05-23T11:35:19.684Z,2.33
2019-05-23T11:37:52.753Z,2.17
2019-05-23T11:42:57.788Z,2.40
2019-05-23T11:48:05.158Z,2.47
2019-05-23T11:52:08.295Z,2.60
2019-05-23T11:54:41.271Z,1.95
2019-05-23T11:57:15.953Z,1.92
2019-05-23T11:59:48.517Z,1.98
2019-05-23T12:02:25.630Z,1.40
2019-05-23T12:12:35.840Z,1.90
2019-05-23T12:15:16.540Z,1.40
2019-05-23T12:17:49.667Z,1.57
2019-05-23T12:20:22.827Z,1.30
2019-05-23T12:22:55.344Z,1.63
2019-05-23T12:25:28.663Z,1.64
2019-05-23T12:28:01.316Z,1.60
2019-05-23T12:30:33.981Z,1.50
2019-05-23T12:33:07.306Z,1.70
2019-05-23T12:35:40.337Z,1.05
2019-05-23T12:38:13.315Z,1.40
2019-05-23T12:40:48.920Z,1.22
2019-05-23T12:43:21.230Z,1.17
2019-05-23T12:45:53.547Z,1.10
2019-05-23T12:48:28.394Z,1.50
2019-05-23T12:51:08.841Z,1.13
2019-05-23T12:53:41.387Z,1.40
2019-05-23T12:56:15.401Z,1.50
2019-05-23T12:58:48.321Z,1.05
2019-05-23T13:01:21.535Z,1.10
2019-05-23T13:03:55.308Z,1.50
2019-05-23T13:06:29.016Z,1.10
2019-05-23T13:09:02.292Z,1.50
2019-05-23T13:11:35.290Z,1.40
2019-05-23T13:14:09.655Z,1.20
2019-05-23T13:16:42.383Z,1.20
2019-05-23T13:21:47.886Z,1.30
2019-05-23T13:24:20.408Z,1.30
2019-05-23T13:26:53.048Z,0.82
2019-05-23T13:29:26.379Z,1.20
2019-05-23T13:31:59.355Z,1.20
2019-05-23T13:34:32.078Z,1.20
2019-05-23T13:37:06.455Z,1.20
2019-05-23T13:39:39.292Z,0.90
2019-05-23T13:44:43.844Z,1.07
2019-05-23T13:49:48.298Z,1.10
2019-05-23T13:54:52.713Z,1.20
2019-05-23T13:59:58.885Z,1.12
2019-05-23T14:02:38.289Z,1.00
2019-05-23T14:05:11.762Z,1.00
2019-05-23T14:07:44.365Z,1.20
2019-05-23T14:10:17.836Z,1.10
2019-05-23T14:12:50.509Z,1.50
2019-05-23T14:15:30.447Z,0.98
2019-05-23T14:18:15.595Z,1.10
2019-05-23T14:20:49.321Z,1.35
2019-05-23T14:23:33.285Z,1.12
2019-05-23T14:26:06.533Z,1.02
2019-05-23T14:28:41.432Z,0.95
2019-05-23T14:31:15.757Z,0.95
2019-05-23T14:34:02.455Z,1.10
2019-05-23T14:36:37.569Z,0.97
2019-05-23T14:39:12.385Z,1.10
2019-05-23T14:41:51.024Z,0.95
2019-05-23T14:44:25.397Z,0.90
2019-05-23T14:47:16.783Z,0.90
2019-05-23T14:49:55.274Z,1.07
2019-05-23T14:55:10.868Z,1.10
2019-05-23T14:57:46.893Z,0.90
2019-05-23T15:00:20.770Z,1.20
2019-05-23T15:02:53.628Z,0.90
2019-05-23T15:05:32.538Z,0.98
2019-05-23T15:08:05.744Z,1.00
2019-05-23T15:10:56.465Z,0.98
2019-05-23T15:13:29.934Z,0.80
2019-05-23T15:16:06.049Z,0.80
2019-05-23T15:18:42.357Z,0.82
2019-05-23T15:21:15.768Z,0.90
2019-05-23T15:41:26.732Z,0.70
2019-05-23T15:44:22.359Z,1.10
2019-05-23T15:46:40.723Z,0.82
2019-05-23T15:54:39.611Z,0.65
2019-05-23T15:57:18.339Z,0.70
2019-05-23T15:59:54.719Z,0.75
2019-05-23T16:02:28.916Z,0.97
2019-05-23T16:05:02.872Z,0.80
2019-05-23T16:08:19.267Z,0.80
2019-05-23T16:10:54.052Z,0.80
2019-05-23T16:13:28.393Z,0.90
2019-05-23T16:16:13.421Z,1.05
2019-05-23T16:18:46.798Z,3.25
2019-05-23T16:21:20.134Z,3.62
2019-05-23T16:23:53.303Z,13.05
2019-05-23T16:26:27.998Z,11.45
2019-05-23T16:29:02.436Z,48.48
2019-05-23T16:31:35.485Z,16.82
2019-05-23T16:34:08.327Z,21.12
2019-05-23T16:36:41.315Z,1.40
2019-05-23T16:39:14.283Z,14.70
2019-05-23T16:41:48.440Z,13.08
2019-05-23T16:44:21.085Z,3.85
2019-05-23T16:46:55.314Z,6.00
2019-05-23T16:49:30.920Z,2.80
2019-05-23T16:52:03.866Z,1.60
2019-05-23T16:54:38.621Z,1.83
2019-05-23T16:57:13.752Z,1.90
2019-05-23T16:59:48.322Z,1.70
2019-05-23T17:02:29.374Z,1.57
2019-05-23T17:05:10.361Z,1.80
2019-05-23T17:07:51.740Z,1.37
2019-05-23T17:10:32.345Z,1.42
2019-05-23T17:13:09.400Z,1.22
2019-05-23T17:15:51.078Z,1.20
2019-05-23T17:18:23.464Z,1.50
2019-05-23T17:21:03.493Z,1.50
2019-05-23T17:23:41.711Z,1.30
2019-05-23T17:26:14.299Z,1.60
2019-05-23T17:28:48.483Z,1.40
2019-05-23T17:31:35.790Z,1.35
2019-05-23T17:34:08.387Z,1.30
2019-05-23T17:36:40.877Z,1.50
2019-05-23T17:39:17.302Z,1.50
2019-05-23T17:41:49.575Z,1.32
2019-05-23T17:44:22.242Z,1.40
2019-05-23T17:46:54.740Z,1.40
2019-05-23T17:49:27.458Z,1.35
2019-05-23T17:52:01.313Z,1.64
2019-05-23T17:54:35.315Z,1.50
2019-05-23T17:57:09.487Z,1.30
2019-05-23T17:59:42.287Z,1.23
2019-05-23T18:02:16.451Z,1.30
2019-05-23T18:04:50.073Z,1.30
2019-05-23T18:07:23.305Z,1.40
2019-05-23T18:09:55.962Z,1.30
2019-05-23T18:12:28.829Z,1.40
2019-05-23T18:15:01.840Z,1.60
2019-05-23T18:17:35.398Z,1.40
2019-05-23T18:22:41.695Z,1.45
2019-05-23T18:25:19.317Z,1.60
2019-05-23T18:27:52.328Z,1.70
2019-05-23T18:30:30.621Z,1.95
2019-05-23T18:35:37.329Z,1.60
2019-05-23T18:38:10.324Z,1.80
2019-05-23T18:40:59.999Z,1.77
2019-05-23T18:43:18.936Z,1.70
2019-05-23T18:45:55.628Z,1.55
2019-05-23T18:48:28.599Z,1.77
2019-05-23T18:51:01.808Z,1.60
2019-05-23T18:53:35.521Z,1.90
2019-05-23T18:56:08.869Z,1.82
2019-05-23T18:58:41.693Z,1.63
2019-05-23T19:01:16.400Z,2.30
2019-05-23T19:03:49.666Z,1.90
2019-05-23T19:06:22.554Z,2.05
2019-05-23T19:08:57.458Z,2.02
2019-05-23T19:14:21.008Z,1.98
2019-05-23T19:16:54.452Z,2.10
2019-05-23T19:19:27.321Z,2.10
2019-05-23T19:22:02.217Z,1.98
2019-05-23T19:24:34.935Z,2.62
2019-05-23T19:27:07.724Z,2.17
2019-05-23T19:29:41.642Z,1.80
2019-05-23T19:32:15.315Z,2.10
2019-05-23T19:34:48.643Z,2.10
2019-05-23T19:37:21.402Z,2.33
2019-05-23T19:39:54.313Z,2.10
2019-05-23T19:42:27.549Z,2.47
2019-05-23T19:45:02.679Z,2.60
2019-05-23T19:47:35.430Z,2.37
2019-05-23T19:50:09.333Z,2.53
2019-05-23T19:55:13.895Z,2.90
2019-05-23T19:57:46.780Z,2.75
2019-05-23T20:00:21.845Z,2.47
2019-05-23T20:02:58.836Z,2.80
2019-05-23T20:05:34.442Z,2.57
2019-05-23T20:10:41.349Z,2.30
2019-05-23T20:15:46.319Z,3.00
2019-05-23T20:18:19.387Z,3.72
2019-05-23T20:20:52.775Z,2.87
2019-05-23T20:23:25.806Z,3.12
2019-05-23T20:25:58.665Z,2.87
2019-05-23T20:28:32.502Z,2.82
2019-05-23T20:31:07.058Z,2.52
2019-05-23T20:33:40.068Z,2.43
2019-05-23T20:36:15.928Z,2.63
2019-05-23T20:38:52.291Z,2.73
2019-05-23T20:41:27.323Z,2.70
2019-05-23T20:46:43.352Z,3.25
2019-05-23T20:49:16.063Z,2.90
2019-05-23T20:51:50.491Z,3.27
2019-05-23T20:54:23.630Z,3.20
2019-05-23T20:56:56.302Z,3.37
2019-05-23T20:59:32.437Z,3.70
2019-05-23T21:02:05.768Z,4.15
2019-05-23T21:04:38.375Z,4.58
2019-05-23T21:07:11.428Z,5.40
2019-05-23T21:09:44.165Z,5.33
2019-05-23T21:12:29.712Z,5.37
2019-05-23T21:14:51.379Z,5.90
2019-05-23T21:17:36.481Z,5.67
2019-05-23T21:20:09.671Z,5.40
2019-05-23T21:22:42.320Z,5.30
2019-05-23T21:25:15.275Z,4.85
2019-05-23T21:27:48.304Z,4.83
2019-05-23T21:30:21.354Z,4.90
2019-05-23T21:32:53.886Z,5.03
2019-05-23T21:35:26.582Z,4.83
2019-05-23T21:37:59.491Z,4.45
2019-05-23T21:40:41.579Z,4.52
2019-05-23T21:43:14.706Z,4.40
2019-05-23T21:45:49.344Z,4.60
2019-05-23T21:48:24.366Z,3.92
2019-05-23T21:50:56.873Z,4.53
2019-05-23T21:53:29.443Z,4.72
2019-05-23T21:56:03.318Z,4.66
2019-05-23T21:58:36.307Z,4.40
2019-05-23T22:01:09.820Z,3.90
2019-05-23T22:03:52.738Z,4.72
2019-05-23T22:06:31.500Z,3.95
2019-05-23T22:09:05.621Z,5.12
2019-05-23T22:11:38.527Z,4.03
2019-05-23T22:14:11.328Z,4.22
2019-05-23T22:16:44.315Z,4.20
2019-05-23T22:19:18.804Z,4.12
2019-05-23T22:21:51.492Z,3.80
2019-05-23T22:26:55.985Z,3.95
2019-05-23T22:29:28.811Z,4.03
2019-05-23T22:32:03.378Z,4.67
2019-05-23T22:35:29.594Z,4.22
2019-05-23T22:38:03.390Z,4.20
2019-05-23T22:40:38.278Z,4.20
2019-05-23T22:43:20.686Z,4.43
2019-05-23T22:45:48.300Z,4.75
2019-05-23T22:50:54.049Z,5.08
2019-05-23T22:53:27.752Z,4.62
2019-05-23T22:56:01.716Z,5.15
2019-05-23T22:58:34.280Z,4.80
2019-05-23T23:01:06.868Z,4.20
2019-05-23T23:03:40.367Z,4.10
2019-05-23T23:06:19.325Z,4.03
2019-05-23T23:08:51.754Z,3.42
2019-05-23T23:11:24.309Z,3.80
2019-05-23T23:13:56.774Z,3.58
2019-05-23T23:16:29.307Z,3.90
2019-05-23T23:19:03.724Z,3.50
2019-05-23T23:21:36.461Z,3.33
2019-05-23T23:24:08.881Z,4.00
2019-05-23T23:26:41.435Z,3.62
2019-05-23T23:29:14.349Z,3.77
2019-05-23T23:31:47.262Z,4.05
2019-05-23T23:34:19.616Z,4.40
2019-05-23T23:36:52.027Z,3.80
2019-05-23T23:39:24.765Z,3.98
2019-05-23T23:41:59.563Z,4.15
2019-05-23T23:44:35.354Z,4.26
2019-05-23T23:47:26.462Z,4.14
2019-05-23T23:50:16.702Z,4.15
2019-05-23T23:53:07.295Z,4.43
2019-05-23T23:55:57.462Z,4.62
2019-05-23T23:58:28.708Z,7.67
